Observation data for Post on 11/19/2019      Previous  Date  Next       Current Mesonet Observations  Soil Data  Daily Summary Page  Observations in Plain Language
KPT1 190600Z 27002KT 11/00 A2996 RMK A01 T01090003  RH  048%=      5-min Rain = 0
KPT1 190605Z 26003KT 11/00 A2996 RMK A01 T01050004  RH  050%=      5-min Rain = 0
KPT1 190610Z 25003KT 10/01 A2996 RMK A01 T01040005  RH  051%=      5-min Rain = 0
KPT1 190615Z 24002KT 11/00 A2996 RMK A01 T01100003  RH  048%=      5-min Rain = 0
KPT1 190620Z 24001KT 12/M00 A2996 RMK A01 T01211001  RH  044%=      5-min Rain = 0
KPT1 190625Z 00000KT 13/M00 A2996 RMK A01 T01261002  RH  042%=      5-min Rain = 0
KPT1 190630Z 20001KT 13/M00 A2996 RMK A01 T01251002  RH  042%=      5-min Rain = 0
KPT1 190635Z 18001KT 12/M00 A2996 RMK A01 T01211001  RH  044%=      5-min Rain = 0
KPT1 190640Z 16001KT 12/M00 A2996 RMK A01 T01211002  RH  043%=      5-min Rain = 0
KPT1 190645Z 00000KT 12/M00 A2996 RMK A01 T01241003  RH  042%=      5-min Rain = 0
KPT1 190650Z 20000KT 12/00 A2996 RMK A01 T01170002  RH  046%=      5-min Rain = 0
KPT1 190655Z 22002KT 10/01 A2996 RMK A01 T01040006  RH  051%=      5-min Rain = 0
KPT1 190700Z 22003KT 10/01 A2996 RMK A01 T01020007  RH  052%=      5-min Rain = 0
KPT1 190705Z 20001KT 11/00 A2996 RMK A01 T01110004  RH  048%=      5-min Rain = 0
KPT1 190710Z 20002KT 12/00 A2996 RMK A01 T01170002  RH  046%=      5-min Rain = 0
KPT1 190715Z 23001KT 11/01 A2996 RMK A01 T01080005  RH  050%=      5-min Rain = 0
KPT1 190720Z 23001KT 11/01 A2997 RMK A01 T01080005  RH  050%=      5-min Rain = 0
KPT1 190725Z 25001KT 11/01 A2997 RMK A01 T01070005  RH  050%=      5-min Rain = 0
KPT1 190730Z 25002KT 11/01 A2997 RMK A01 T01060005  RH  050%=      5-min Rain = 0
KPT1 190735Z 26002KT 10/01 A2996 RMK A01 T01040006  RH  051%=      5-min Rain = 0
KPT1 190740Z 27004KT 10/01 A2997 RMK A01 T01040006  RH  051%=      5-min Rain = 0
KPT1 190745Z 26004KT 10/01 A2997 RMK A01 T01030007  RH  052%=      5-min Rain = 0
KPT1 190750Z 26005KT 10/01 A2997 RMK A01 T01000008  RH  054%=      5-min Rain = 0
KPT1 190755Z 26005KT 10/01 A2996 RMK A01 T00980009  RH  054%=      5-min Rain = 0
KPT1 190800Z 26006KT 10/01 A2996 RMK A01 T00950009  RH  056%=      5-min Rain = 0
KPT1 190805Z 26006KT 10/01 A2997 RMK A01 T00950010  RH  056%=      5-min Rain = 0
KPT1 190810Z 25005KT 10/01 A2997 RMK A01 T00950010  RH  056%=      5-min Rain = 0
KPT1 190815Z 25005KT 10/01 A2997 RMK A01 T00950010  RH  056%=      5-min Rain = 0
KPT1 190820Z 25005KT 10/01 A2997 RMK A01 T00950010  RH  056%=      5-min Rain = 0
KPT1 190825Z 24005KT 10/01 A2997 RMK A01 T00950010  RH  056%=      5-min Rain = 0
KPT1 190830Z 24005KT 10/01 A2996 RMK A01 T00960009  RH  055%=      5-min Rain = 0
KPT1 190835Z 23004KT 10/01 A2996 RMK A01 T00960009  RH  056%=      5-min Rain = 0
KPT1 190840Z 23005KT 10/01 A2996 RMK A01 T00950009  RH  056%=      5-min Rain = 0
KPT1 190845Z 23005KT 09/01 A2996 RMK A01 T00940010  RH  057%=      5-min Rain = 0
KPT1 190850Z 23005KT 10/01 A2996 RMK A01 T00970010  RH  056%=      5-min Rain = 0
KPT1 190855Z 23005KT 10/01 A2996 RMK A01 T01040009  RH  053%=      5-min Rain = 0
KPT1 190900Z 22006KT 10/01 A2996 RMK A01 T01020009  RH  053%=      5-min Rain = 0
KPT1 190905Z 22005KT 11/01 A2996 RMK A01 T01080008  RH  051%=      5-min Rain = 0
KPT1 190910Z 22006KT 11/01 A2996 RMK A01 T01050008  RH  052%=      5-min Rain = 0
KPT1 190915Z 22007KT 10/01 A2996 RMK A01 T01040009  RH  053%=      5-min Rain = 0
KPT1 190920Z 22006KT 11/01 A2996 RMK A01 T01080009  RH  051%=      5-min Rain = 0
KPT1 190925Z 22007KT 11/01 A2996 RMK A01 T01090010  RH  051%=      5-min Rain = 0
KPT1 190930Z 21006KT 11/01 A2996 RMK A01 T01110010  RH  051%=      5-min Rain = 0
KPT1 190935Z 21005KT 11/01 A2996 RMK A01 T01120010  RH  050%=      5-min Rain = 0
KPT1 190940Z 21005KT 11/01 A2996 RMK A01 T01130009  RH  050%=      5-min Rain = 0
KPT1 190945Z 22004KT 12/01 A2996 RMK A01 T01150008  RH  048%=      5-min Rain = 0
KPT1 190950Z 22003KT 11/01 A2996 RMK A01 T01140008  RH  049%=      5-min Rain = 0
KPT1 190955Z 22002KT 11/01 A2996 RMK A01 T01090008  RH  050%=      5-min Rain = 0
KPT1 191000Z 22002KT 11/01 A2996 RMK A01 T01060009  RH  052%=      5-min Rain = 0
KPT1 191005Z 22002KT 10/01 A2996 RMK A01 T01000009  RH  054%=      5-min Rain = 0
KPT1 191010Z 25001KT 10/01 A2995 RMK A01 T00960010  RH  056%=      5-min Rain = 0
KPT1 191015Z 27001KT 09/01 A2995 RMK A01 T00940008  RH  056%=      5-min Rain = 0
KPT1 191020Z 27001KT 10/01 A2996 RMK A01 T00960009  RH  055%=      5-min Rain = 0
KPT1 191025Z 26001KT 10/01 A2996 RMK A01 T00990008  RH  054%=      5-min Rain = 0
KPT1 191030Z 26002KT 10/01 A2996 RMK A01 T01010007  RH  053%=      5-min Rain = 0
KPT1 191035Z 27003KT 09/01 A2996 RMK A01 T00910007  RH  056%=      5-min Rain = 0
KPT1 191040Z 29003KT 09/01 A2996 RMK A01 T00850008  RH  059%=      5-min Rain = 0
KPT1 191045Z 30004KT 08/01 A2996 RMK A01 T00820008  RH  060%=      5-min Rain = 0
KPT1 191050Z 30005KT 08/01 A2996 RMK A01 T00770008  RH  062%=      5-min Rain = 0
KPT1 191055Z 31005KT 07/01 A2996 RMK A01 T00740009  RH  064%=      5-min Rain = 0
KPT1 191100Z 32006KT 07/01 A2996 RMK A01 T00700008  RH  066%=      5-min Rain = 0
KPT1 191105Z 32006KT 07/01 A2995 RMK A01 T00670009  RH  067%=      5-min Rain = 0
KPT1 191110Z 32005KT 07/01 A2995 RMK A01 T00680010  RH  067%=      5-min Rain = 0
KPT1 191115Z 32006KT 07/01 A2995 RMK A01 T00680009  RH  067%=      5-min Rain = 0
KPT1 191120Z 31006KT 07/01 A2995 RMK A01 T00670010  RH  068%=      5-min Rain = 0
KPT1 191125Z 31006KT 07/01 A2995 RMK A01 T00680010  RH  068%=      5-min Rain = 0
KPT1 191130Z 31006KT 07/01 A2995 RMK A01 T00700010  RH  066%=      5-min Rain = 0
KPT1 191135Z 32005KT 07/01 A2995 RMK A01 T00690009  RH  066%=      5-min Rain = 0
KPT1 191140Z 32005KT 07/01 A2995 RMK A01 T00690009  RH  067%=      5-min Rain = 0
KPT1 191145Z 31006KT 07/01 A2995 RMK A01 T00700008  RH  066%=      5-min Rain = 0
KPT1 191150Z 31006KT 07/01 A2995 RMK A01 T00700009  RH  066%=      5-min Rain = 0
KPT1 191155Z 30006KT 07/01 A2995 RMK A01 T00680009  RH  067%=      5-min Rain = 0
KPT1 191200Z 31007KT 07/01 A2995 RMK A01 T00690009  RH  067%=      5-min Rain = 0
KPT1 191205Z 31007KT 07/01 A2996 RMK A01 T00700010  RH  066%=      5-min Rain = 0
KPT1 191210Z 31005KT 07/01 A2995 RMK A01 T00740010  RH  065%=      5-min Rain = 0
KPT1 191215Z 30005KT 08/01 A2995 RMK A01 T00790009  RH  062%=      5-min Rain = 0
KPT1 191220Z 29004KT 08/01 A2995 RMK A01 T00820008  RH  061%=      5-min Rain = 0
KPT1 191225Z 28003KT 08/01 A2995 RMK A01 T00840008  RH  059%=      5-min Rain = 0
KPT1 191230Z 29003KT 08/01 A2995 RMK A01 T00790007  RH  061%=      5-min Rain = 0
KPT1 191235Z 29003KT 08/01 A2995 RMK A01 T00780007  RH  062%=      5-min Rain = 0
KPT1 191240Z 30002KT 08/01 A2995 RMK A01 T00750007  RH  063%=      5-min Rain = 0
KPT1 191245Z 32002KT 07/01 A2995 RMK A01 T00680007  RH  066%=      5-min Rain = 0
KPT1 191250Z 31002KT 07/01 A2995 RMK A01 T00650008  RH  068%=      5-min Rain = 0
KPT1 191255Z 32003KT 06/01 A2995 RMK A01 T00630007  RH  068%=      5-min Rain = 0
KPT1 191300Z 31004KT 06/01 A2996 RMK A01 T00600006  RH  069%=      5-min Rain = 0
KPT1 191305Z 30005KT 06/01 A2996 RMK A01 T00560008  RH  072%=      5-min Rain = 0
KPT1 191310Z 30003KT 06/01 A2996 RMK A01 T00610011  RH  071%=      5-min Rain = 0
KPT1 191315Z 26003KT 06/01 A2996 RMK A01 T00590008  RH  071%=      5-min Rain = 0
KPT1 191320Z 24003KT 05/01 A2996 RMK A01 T00540008  RH  073%=      5-min Rain = 0
KPT1 191325Z 23003KT 06/01 A2996 RMK A01 T00580011  RH  073%=      5-min Rain = 0
KPT1 191330Z 20005KT 06/01 A2996 RMK A01 T00610010  RH  071%=      5-min Rain = 0
KPT1 191335Z 19006KT 06/01 A2996 RMK A01 T00610010  RH  071%=      5-min Rain = 0
KPT1 191340Z 18006KT 06/01 A2997 RMK A01 T00640011  RH  070%=      5-min Rain = 0
KPT1 191345Z 19005KT 07/01 A2997 RMK A01 T00670013  RH  069%=      5-min Rain = 0
KPT1 191350Z 18004KT 07/02 A2997 RMK A01 T00730015  RH  068%=      5-min Rain = 0
KPT1 191355Z 18003KT 08/01 A2997 RMK A01 T00810014  RH  063%=      5-min Rain = 0
KPT1 191400Z 19003KT 09/01 A2997 RMK A01 T00860012  RH  060%=      5-min Rain = 0
KPT1 191405Z 18003KT 09/01 A2997 RMK A01 T00890011  RH  059%=      5-min Rain = 0
KPT1 191410Z 17003KT 09/01 A2997 RMK A01 T00910014  RH  059%=      5-min Rain = 0
KPT1 191415Z 18002KT 09/02 A2997 RMK A01 T00940015  RH  059%=      5-min Rain = 0
KPT1 191420Z 20002KT 10/02 A2997 RMK A01 T00960017  RH  059%=      5-min Rain = 0
KPT1 191425Z 21002KT 10/02 A2997 RMK A01 T00970017  RH  058%=      5-min Rain = 0
KPT1 191430Z 22001KT 10/02 A2997 RMK A01 T00980019  RH  059%=      5-min Rain = 0
KPT1 191435Z 21002KT 10/02 A2997 RMK A01 T00960019  RH  060%=      5-min Rain = 0
KPT1 191440Z 22002KT 10/02 A2997 RMK A01 T01040022  RH  058%=      5-min Rain = 0
KPT1 191445Z 22002KT 11/02 A2997 RMK A01 T01100021  RH  055%=      5-min Rain = 0
KPT1 191450Z 20002KT 11/02 A2997 RMK A01 T01140023  RH  054%=      5-min Rain = 0
KPT1 191455Z 21002KT 12/02 A2997 RMK A01 T01160022  RH  053%=      5-min Rain = 0
KPT1 191500Z 21002KT 12/02 A2997 RMK A01 T01190022  RH  052%=      5-min Rain = 0
KPT1 191505Z 18001KT 13/02 A2997 RMK A01 T01250023  RH  051%=      5-min Rain = 0
KPT1 191510Z 16001KT 13/03 A2997 RMK A01 T01320025  RH  049%=      5-min Rain = 0
KPT1 191515Z 15002KT 14/03 A2997 RMK A01 T01370026  RH  048%=      5-min Rain = 0
KPT1 191520Z 14002KT 14/02 A2997 RMK A01 T01380024  RH  047%=      5-min Rain = 0
KPT1 191525Z 15002KT 14/03 A2997 RMK A01 T01390025  RH  047%=      5-min Rain = 0
KPT1 191530Z 16002KT 14/02 A2997 RMK A01 T01420023  RH  045%=      5-min Rain = 0
KPT1 191535Z 16002KT 15/02 A2997 RMK A01 T01460024  RH  044%=      5-min Rain = 0
KPT1 191540Z 15002KT 14/03 A2998 RMK A01 T01440028  RH  046%=      5-min Rain = 0
KPT1 191545Z 10002KT 15/03 A2998 RMK A01 T01470028  RH  046%=      5-min Rain = 0
KPT1 191550Z 11001KT 15/03 A2998 RMK A01 T01530029  RH  044%=      5-min Rain = 0
KPT1 191555Z 17003KT 16/03 A2998 RMK A01 T01600027  RH  042%=      5-min Rain = 0
KPT1 191600Z 19003KT 16/03 A2998 RMK A01 T01630027  RH  041%=      5-min Rain = 0
KPT1 191605Z 20003KT 17/03 A2998 RMK A01 T01660028  RH  040%=      5-min Rain = 0
KPT1 191610Z 20004KT 17/03 A2998 RMK A01 T01710029  RH  039%=      5-min Rain = 0
KPT1 191615Z 19004KT 17/03 A2997 RMK A01 T01740030  RH  039%=      5-min Rain = 0
KPT1 191620Z 20006KT 18/03 A2997 RMK A01 T01760031  RH  039%=      5-min Rain = 0
KPT1 191625Z 21008KT 18/03 A2997 RMK A01 T01760031  RH  039%=      5-min Rain = 0
KPT1 191630Z 20006KT 18/03 A2997 RMK A01 T01800033  RH  038%=      5-min Rain = 0
KPT1 191635Z 21007KT 18/03 A2997 RMK A01 T01820034  RH  038%=      5-min Rain = 0
KPT1 191640Z 21005KT 19/04 A2997 RMK A01 T01850036  RH  038%=      5-min Rain = 0
KPT1 191645Z 20006KT 19/04 A2996 RMK A01 T01870036  RH  037%=      5-min Rain = 0
KPT1 191650Z 21007KT 19/04 A2996 RMK A01 T01900036  RH  037%=      5-min Rain = 0
KPT1 191655Z 20007KT 19/04 A2996 RMK A01 T01940035  RH  036%=      5-min Rain = 0
KPT1 191700Z 20007KT 20/04 A2996 RMK A01 T01960035  RH  035%=      5-min Rain = 0
KPT1 191705Z 19007KT 20/03 A2996 RMK A01 T01980034  RH  034%=      5-min Rain = 0
KPT1 191710Z 19008KT 21/03 A2995 RMK A01 T02050034  RH  033%=      5-min Rain = 0
KPT1 191715Z 20009KT 21/03 A2995 RMK A01 T02050034  RH  033%=      5-min Rain = 0
KPT1 191720Z 18008KT 21/04 A2995 RMK A01 T02080035  RH  033%=      5-min Rain = 0
KPT1 191725Z 16008KT 21/04 A2995 RMK A01 T02100037  RH  033%=      5-min Rain = 0
KPT1 191730Z 17009KT 21/04 A2994 RMK A01 T02080037  RH  033%=      5-min Rain = 0
KPT1 191735Z 17008KT 21/04 A2994 RMK A01 T02140036  RH  032%=      5-min Rain = 0
KPT1 191740Z 17009G14KT 22/04 A2994 RMK A01 T02190035  RH  030%=      5-min Rain = 0
KPT1 191745Z 18009KT 22/03 A2993 RMK A01 T02210026  RH  028%=      5-min Rain = 0
KPT1 191750Z 19009KT 22/02 A2993 RMK A01 T02230024  RH  027%=      5-min Rain = 0
KPT1 191755Z 18008KT 23/03 A2993 RMK A01 T02290027  RH  027%=      5-min Rain = 0
KPT1 191800Z 18007KT 23/03 A2993 RMK A01 T02300028  RH  027%=      5-min Rain = 0
KPT1 191805Z 18008KT 23/03 A2992 RMK A01 T02330027  RH  026%=      5-min Rain = 0
KPT1 191810Z 17009KT 23/03 A2992 RMK A01 T02330026  RH  026%=      5-min Rain = 0
KPT1 191815Z 18011G17KT 23/03 A2992 RMK A01 T02330025  RH  026%=      5-min Rain = 0
KPT1 191820Z 19011G16KT 23/02 A2992 RMK A01 T02320024  RH  026%=      5-min Rain = 0
KPT1 191825Z 18009G14KT 24/03 A2991 RMK A01 T02380026  RH  025%=      5-min Rain = 0
KPT1 191830Z 17012KT 24/03 A2991 RMK A01 T02430025  RH  025%=      5-min Rain = 0
KPT1 191835Z 18011KT 24/02 A2991 RMK A01 T02400024  RH  025%=      5-min Rain = 0
KPT1 191840Z 18011KT 24/02 A299 RMK A01 T02430023  RH  024%=      5-min Rain = 0
KPT1 191845Z 18013G18KT 24/02 A299 RMK A01 T02440020  RH  023%=      5-min Rain = 0
KPT1 191850Z 18011G16KT 24/02 A2989 RMK A01 T02430019  RH  024%=      5-min Rain = 0
KPT1 191855Z 19011G17KT 25/02 A2989 RMK A01 T02460021  RH  023%=      5-min Rain = 0
KPT1 191900Z 18012KT 25/02 A2989 RMK A01 T02470022  RH  023%=      5-min Rain = 0
KPT1 191905Z 18013G21KT 25/02 A2989 RMK A01 T02480017  RH  023%=      5-min Rain = 0
KPT1 191910Z 19011G17KT 25/01 A2989 RMK A01 T02480013  RH  022%=      5-min Rain = 0
KPT1 191915Z 19012G19KT 25/02 A2988 RMK A01 T02490019  RH  023%=      5-min Rain = 0
KPT1 191920Z 19012G17KT 25/01 A2988 RMK A01 T02500012  RH  021%=      5-min Rain = 0
KPT1 191925Z 20012KT 25/01 A2988 RMK A01 T02490012  RH  021%=      5-min Rain = 0
KPT1 191930Z 19013G18KT 25/01 A2988 RMK A01 T02500012  RH  021%=      5-min Rain = 0
KPT1 191935Z 19013KT 25/01 A2987 RMK A01 T02490010  RH  021%=      5-min Rain = 0
KPT1 191940Z 19012G17KT 25/01 A2987 RMK A01 T02520010  RH  021%=      5-min Rain = 0
KPT1 191945Z 18015G20KT 25/01 A2987 RMK A01 T02510007  RH  020%=      5-min Rain = 0
KPT1 191950Z 19013G19KT 25/01 A2986 RMK A01 T02530006  RH  020%=      5-min Rain = 0
KPT1 191955Z 20015G21KT 25/00 A2986 RMK A01 T02530000  RH  019%=      5-min Rain = 0
KPT1 192000Z 20012G17KT 26/01 A2986 RMK A01 T02550005  RH  020%=      5-min Rain = 0
KPT1 192005Z 18012G18KT 26/01 A2986 RMK A01 T02580008  RH  020%=      5-min Rain = 0
KPT1 192010Z 18013G19KT 26/01 A2985 RMK A01 T02570007  RH  020%=      5-min Rain = 0
KPT1 192015Z 18014G19KT 26/01 A2985 RMK A01 T02570009  RH  020%=      5-min Rain = 0
KPT1 192020Z 18013G19KT 26/01 A2985 RMK A01 T02580010  RH  020%=      5-min Rain = 0
KPT1 192025Z 19013G18KT 26/01 A2985 RMK A01 T02570007  RH  020%=      5-min Rain = 0
KPT1 192030Z 19013G18KT 25/01 A2984 RMK A01 T02530006  RH  020%=      5-min Rain = 0
KPT1 192035Z 19011KT 26/01 A2984 RMK A01 T02580009  RH  020%=      5-min Rain = 0
KPT1 192040Z 19013KT 26/01 A2984 RMK A01 T02600008  RH  019%=      5-min Rain = 0
KPT1 192045Z 18014G20KT 26/01 A2984 RMK A01 T02600006  RH  019%=      5-min Rain = 0
KPT1 192050Z 19012G17KT 26/00 A2983 RMK A01 T02600004  RH  019%=      5-min Rain = 0
KPT1 192055Z 19010G16KT 26/00 A2983 RMK A01 T02640004  RH  018%=      5-min Rain = 0
KPT1 192100Z 19012G19KT 26/00 A2983 RMK A01 T02640000  RH  018%=      5-min Rain = 0
KPT1 192105Z 19011G18KT 26/00 A2983 RMK A01 T02640000  RH  018%=      5-min Rain = 0
KPT1 192110Z 19010G17KT 27/00 A2983 RMK A01 T02670001  RH  018%=      5-min Rain = 0
KPT1 192115Z 18012KT 26/M00 A2982 RMK A01 T02641002  RH  018%=      5-min Rain = 0
KPT1 192120Z 18010G15KT 26/00 A2982 RMK A01 T02640000  RH  018%=      5-min Rain = 0
KPT1 192125Z 18012G17KT 26/M00 A2983 RMK A01 T02591002  RH  018%=      5-min Rain = 0
KPT1 192130Z 18012KT 26/M00 A2982 RMK A01 T02601001  RH  018%=      5-min Rain = 0
KPT1 192135Z 20010KT 26/M00 A2982 RMK A01 T02631001  RH  018%=      5-min Rain = 0
KPT1 192140Z 18011G16KT 26/M00 A2982 RMK A01 T02621001  RH  018%=      5-min Rain = 0
KPT1 192145Z 18011G16KT 26/00 A2982 RMK A01 T02630000  RH  018%=      5-min Rain = 0
KPT1 192150Z 19010KT 27/M00 A2982 RMK A01 T02661001  RH  018%=      5-min Rain = 0
KPT1 192155Z 19011G17KT 26/M00 A2982 RMK A01 T02591003  RH  018%=      5-min Rain = 0
KPT1 192200Z 18012KT 26/M00 A2982 RMK A01 T02601002  RH  018%=      5-min Rain = 0
KPT1 192205Z 19011KT 26/M00 A2982 RMK A01 T02601003  RH  018%=      5-min Rain = 0
KPT1 192210Z 19011G17KT 26/M00 A2982 RMK A01 T02601002  RH  018%=      5-min Rain = 0
KPT1 192215Z 20011G16KT 26/M00 A2982 RMK A01 T02601002  RH  018%=      5-min Rain = 0
KPT1 192220Z 18009G15KT 26/00 A2982 RMK A01 T02610002  RH  018%=      5-min Rain = 0
KPT1 192225Z 19011KT 26/M00 A2982 RMK A01 T02551001  RH  019%=      5-min Rain = 0
KPT1 192230Z 18011G17KT 25/M00 A2982 RMK A01 T02511002  RH  019%=      5-min Rain = 0
KPT1 192235Z 18010G16KT 25/00 A2982 RMK A01 T02500001  RH  020%=      5-min Rain = 0
KPT1 192240Z 18010G15KT 25/00 A2982 RMK A01 T02480001  RH  020%=      5-min Rain = 0
KPT1 192245Z 18007KT 24/00 A2982 RMK A01 T02410004  RH  021%=      5-min Rain = 0
KPT1 192250Z 18008KT 24/00 A2982 RMK A01 T02370004  RH  022%=      5-min Rain = 0
KPT1 192255Z 18008KT 24/01 A2982 RMK A01 T02370005  RH  022%=      5-min Rain = 0
KPT1 192300Z 18008KT 24/01 A2981 RMK A01 T02370005  RH  022%=      5-min Rain = 0
KPT1 192305Z 18007G12KT 24/01 A2981 RMK A01 T02390006  RH  022%=      5-min Rain = 0
KPT1 192310Z 18008KT 24/01 A2981 RMK A01 T02390007  RH  022%=      5-min Rain = 0
KPT1 192315Z 18008KT 24/01 A2981 RMK A01 T02370008  RH  022%=      5-min Rain = 0
KPT1 192320Z 18007KT 23/01 A2981 RMK A01 T02320009  RH  023%=      5-min Rain = 0
KPT1 192325Z 18007KT 23/01 A2981 RMK A01 T02280010  RH  024%=      5-min Rain = 0
KPT1 192330Z 18007KT 22/01 A2981 RMK A01 T02240012  RH  025%=      5-min Rain = 0
KPT1 192335Z 18007KT 22/01 A2981 RMK A01 T02200013  RH  026%=      5-min Rain = 0
KPT1 192340Z 17006KT 21/01 A2981 RMK A01 T02140014  RH  027%=      5-min Rain = 0
KPT1 192345Z 17006KT 21/01 A2981 RMK A01 T02090014  RH  028%=      5-min Rain = 0
KPT1 192350Z 18006KT 21/01 A2981 RMK A01 T02060014  RH  028%=      5-min Rain = 0
KPT1 192355Z 18006KT 20/01 A2981 RMK A01 T02040014  RH  029%=      5-min Rain = 0
KPT1 200000Z 18006KT 20/01 A2981 RMK A01 T02030013  RH  029%=      5-min Rain = 0
KPT1 200005Z 18006KT 20/01 A2981 RMK A01 T02010014  RH  029%=      5-min Rain = 0
KPT1 200010Z 17006KT 20/02 A2982 RMK A01 T01960015  RH  030%=      5-min Rain = 0
KPT1 200015Z 18006KT 19/02 A2982 RMK A01 T01940015  RH  031%=      5-min Rain = 0
KPT1 200020Z 18006KT 19/02 A2981 RMK A01 T01910015  RH  031%=      5-min Rain = 0
KPT1 200025Z 18005KT 19/02 A2981 RMK A01 T01900015  RH  032%=      5-min Rain = 0
KPT1 200030Z 18005KT 19/01 A2981 RMK A01 T01900014  RH  031%=      5-min Rain = 0
KPT1 200035Z 18006KT 19/02 A2981 RMK A01 T01880015  RH  032%=      5-min Rain = 0
KPT1 200040Z 18006KT 19/02 A2981 RMK A01 T01880015  RH  032%=      5-min Rain = 0
KPT1 200045Z 18006KT 19/02 A2981 RMK A01 T01880015  RH  032%=      5-min Rain = 0
KPT1 200050Z 17005KT 19/02 A2981 RMK A01 T01850015  RH  033%=      5-min Rain = 0
KPT1 200055Z 17004KT 18/02 A2981 RMK A01 T01820016  RH  033%=      5-min Rain = 0
KPT1 200100Z 17004KT 18/02 A2981 RMK A01 T01810017  RH  034%=      5-min Rain = 0
KPT1 200105Z 17005KT 18/02 A2981 RMK A01 T01800017  RH  034%=      5-min Rain = 0
KPT1 200110Z 17005KT 18/02 A2981 RMK A01 T01770017  RH  035%=      5-min Rain = 0
KPT1 200115Z 17006KT 18/02 A2981 RMK A01 T01770018  RH  035%=      5-min Rain = 0
KPT1 200120Z 18006KT 18/02 A2982 RMK A01 T01760018  RH  035%=      5-min Rain = 0
KPT1 200125Z 18006KT 18/02 A2982 RMK A01 T01760018  RH  035%=      5-min Rain = 0
KPT1 200130Z 19006KT 18/02 A2982 RMK A01 T01770018  RH  035%=      5-min Rain = 0
KPT1 200135Z 18007KT 18/02 A2982 RMK A01 T01810020  RH  034%=      5-min Rain = 0
KPT1 200140Z 18007KT 18/02 A2982 RMK A01 T01810022  RH  035%=      5-min Rain = 0
KPT1 200145Z 19007KT 18/02 A2982 RMK A01 T01840020  RH  034%=      5-min Rain = 0
KPT1 200150Z 19008KT 19/02 A2982 RMK A01 T01930018  RH  032%=      5-min Rain = 0
KPT1 200155Z 19009KT 20/02 A2982 RMK A01 T01960017  RH  031%=      5-min Rain = 0
KPT1 200200Z 19008KT 20/02 A2982 RMK A01 T01950017  RH  031%=      5-min Rain = 0
KPT1 200205Z 19008KT 19/02 A2982 RMK A01 T01920017  RH  032%=      5-min Rain = 0
KPT1 200210Z 19008KT 19/02 A2982 RMK A01 T01880017  RH  032%=      5-min Rain = 0
KPT1 200215Z 19008KT 19/02 A2982 RMK A01 T01880017  RH  032%=      5-min Rain = 0
KPT1 200220Z 18008KT 19/02 A2982 RMK A01 T01880018  RH  033%=      5-min Rain = 0
KPT1 200225Z 19008KT 19/02 A2982 RMK A01 T01870018  RH  033%=      5-min Rain = 0
KPT1 200230Z 19009KT 19/02 A2983 RMK A01 T01900019  RH  032%=      5-min Rain = 0
KPT1 200235Z 19010G15KT 19/02 A2983 RMK A01 T01930021  RH  032%=      5-min Rain = 0
KPT1 200240Z 19010KT 20/02 A2983 RMK A01 T01950022  RH  032%=      5-min Rain = 0
KPT1 200245Z 19009G14KT 19/02 A2983 RMK A01 T01940022  RH  032%=      5-min Rain = 0
KPT1 200250Z 19009G14KT 19/02 A2983 RMK A01 T01920023  RH  033%=      5-min Rain = 0
KPT1 200255Z 19008KT 19/03 A2983 RMK A01 T01910025  RH  034%=      5-min Rain = 0
KPT1 200300Z 19007KT 19/03 A2983 RMK A01 T01870026  RH  035%=      5-min Rain = 0
KPT1 200305Z 18006KT 18/03 A2983 RMK A01 T01830027  RH  036%=      5-min Rain = 0
KPT1 200310Z 18005KT 18/03 A2983 RMK A01 T01780029  RH  038%=      5-min Rain = 0
KPT1 200315Z 17005KT 18/03 A2983 RMK A01 T01750031  RH  039%=      5-min Rain = 0
KPT1 200320Z 17006KT 17/03 A2983 RMK A01 T01710031  RH  040%=      5-min Rain = 0
KPT1 200325Z 17007KT 17/03 A2983 RMK A01 T01700034  RH  041%=      5-min Rain = 0
KPT1 200330Z 17007KT 17/04 A2983 RMK A01 T01680035  RH  042%=      5-min Rain = 0
KPT1 200335Z 18006KT 17/04 A2983 RMK A01 T01660039  RH  044%=      5-min Rain = 0
KPT1 200340Z 19009G14KT 18/05 A2983 RMK A01 T01750047  RH  044%=      5-min Rain = 0
KPT1 200345Z 19010KT 18/05 A2983 RMK A01 T01810048  RH  042%=      5-min Rain = 0
KPT1 200350Z 19009G15KT 18/05 A2983 RMK A01 T01810050  RH  043%=      5-min Rain = 0
KPT1 200355Z 19009G14KT 18/05 A2983 RMK A01 T01810051  RH  043%=      5-min Rain = 0
KPT1 200400Z 19009G15KT 18/05 A2983 RMK A01 T01800053  RH  044%=      5-min Rain = 0
KPT1 200405Z 18009KT 18/05 A2983 RMK A01 T01750051  RH  045%=      5-min Rain = 0
KPT1 200410Z 18010G15KT 17/05 A2983 RMK A01 T01690048  RH  046%=      5-min Rain = 0
KPT1 200415Z 18010KT 17/05 A2983 RMK A01 T01670049  RH  047%=      5-min Rain = 0
KPT1 200420Z 18009G14KT 17/05 A2983 RMK A01 T01660050  RH  047%=      5-min Rain = 0
KPT1 200425Z 18010KT 17/05 A2983 RMK A01 T01660051  RH  048%=      5-min Rain = 0
KPT1 200430Z 18009G15KT 17/05 A2983 RMK A01 T01670053  RH  048%=      5-min Rain = 0
KPT1 200435Z 17008KT 17/05 A2983 RMK A01 T01660054  RH  049%=      5-min Rain = 0
KPT1 200440Z 17008KT 16/06 A2983 RMK A01 T01640055  RH  050%=      5-min Rain = 0
KPT1 200445Z 18008G14KT 17/06 A2983 RMK A01 T01650059  RH  051%=      5-min Rain = 0
KPT1 200450Z 18009KT 17/06 A2983 RMK A01 T01670064  RH  052%=      5-min Rain = 0
KPT1 200455Z 18010G17KT 17/07 A2983 RMK A01 T01740069  RH  051%=      5-min Rain = 0
KPT1 200500Z 19011KT 18/07 A2983 RMK A01 T01750069  RH  051%=      5-min Rain = 0
KPT1 200505Z 19011KT 17/07 A2983 RMK A01 T01730069  RH  052%=      5-min Rain = 0
KPT1 200510Z 19012G18KT 17/07 A2984 RMK A01 T01730071  RH  052%=      5-min Rain = 0
KPT1 200515Z 20010G16KT 17/07 A2984 RMK A01 T01720071  RH  053%=      5-min Rain = 0
KPT1 200520Z 19010G15KT 17/07 A2984 RMK A01 T01700073  RH  054%=      5-min Rain = 0
KPT1 200525Z 19010G17KT 17/07 A2984 RMK A01 T01700074  RH  054%=      5-min Rain = 0
KPT1 200530Z 19011KT 17/08 A2983 RMK A01 T01700075  RH  055%=      5-min Rain = 0
KPT1 200535Z 18011G16KT 17/08 A2983 RMK A01 T01710076  RH  055%=      5-min Rain = 0
KPT1 200540Z 18010G15KT 17/08 A2983 RMK A01 T01700077  RH  056%=      5-min Rain = 0
KPT1 200545Z 18009KT 17/08 A2983 RMK A01 T01680077  RH  056%=      5-min Rain = 0
KPT1 200550Z 19010G15KT 17/08 A2983 RMK A01 T01680078  RH  057%=      5-min Rain = 0
KPT1 200555Z 19011G17KT 17/08 A2983 RMK A01 T01660078  RH  058%=      5-min Rain = 0

Page generated in 0.009 seconds.